ZGKL

Guilin Liangjiang International Airport

Guilin City, China
TAF ZGKL 161912Z 1700/1724 15003MPS 9999 SCT033 SCT060 TX36/1708Z TN25/1722Z
Issued Valid From Valid To
Jul-16 @ 19:12 UTC
(5 hours ago)
Jul-17 @ 00:00 UTC
(25 minutes ago)
Jul-18 @ 00:00 UTC
(in 24 hours)
Jul-17 @ 00:00 to Jul-18 @ 00:00
TAF ZGKL 161912Z 1700/1724 15003MPS 9999 SCT033 SCT060 TX36/1708Z TN25/1722Z
Wind Visibility Clouds
150° at 6 knots 10,000+ meters
  • Scattered at 3,300' AGL
  • Scattered at 6,000' AGL
TAF ZGKL 161912Z 1700/1724 15003MPS 9999 SCT033 SCT060 TX36/1708Z TN25/1722Z
Issued Jul-16 @ 19:12 UTC
(5 hours ago)
Valid From Jul-17 @ 00:00 UTC
(25 minutes ago)
Valid To Jul-18 @ 00:00 UTC
(in 24 hours)
Jul-17 @ 00:00 - Jul-18 @ 00:00
Wind Visibility
150° at 6 knots 10,000+ meters
Clouds
  • Scattered at 3,300' AGL
  • Scattered at 6,000' AGL